Country
Station

 

Weather  for  Chillan  -  Chile    Chile

  
12 °C (54 °F)
    
 
 

Current METAR for Chillan is :

SCCH 200700Z AUTO VRB02KT 9999 ///////// 12/12 Q1017

 

This is a report for Chillan - Chile.
 
The report was made 15 minutes ago, at 07:00 UTC .
The wind was blowing at a speed of 1.0 meters per second (2.3 miles per hour) from variable directions.
 
The temperature was 12 °C (54 °F), with a dew-point at 12 °C (54 °F).
The atmospheric pressure was 1017 hPa (30.03 inHg).
The relative humidity was 100.0%.
 
The overall visibility was greater than 10 kilometers (6.2 miles).
 

 
 
 
 

Country :   A   B   C   D   E   F   G   H   I   J   K   L   M   N   O   P   Q   R   S   T   U   V   W   Y   Z

 

Site Info  |  Disclaimer  |  Credits  |  Privacy
Contact us  |  Add to favorites
© 2013-2019 METARs - All rights reserved